sensor_id;sensor_type;location;lat;lon;timestamp;P1;durP1;ratioP1;P2;durP2;ratioP2
55218;SDS011;41088;44.012;20.902;2022-10-16T08:24:21;11.20;;;4.40;;
55218;SDS011;41088;44.012;20.902;2022-10-16T09:37:21;14.15;;;4.95;;
55218;SDS011;41088;44.012;20.902;2022-10-16T09:51:25;8.68;;;4.25;;
55218;SDS011;41088;44.012;20.902;2022-10-16T10:07:17;7.22;;;4.05;;
55218;SDS011;41088;44.012;20.902;2022-10-16T10:09:46;8.52;;;3.50;;
55218;SDS011;41088;44.012;20.902;2022-10-16T10:45:42;9.68;;;4.15;;
55218;SDS011;41088;44.012;20.902;2022-10-16T10:50:42;8.07;;;3.95;;
55218;SDS011;41088;44.012;20.902;2022-10-16T10:53:21;10.10;;;3.80;;
55218;SDS011;41088;44.012;20.902;2022-10-16T11:01:26;12.75;;;3.78;;
55218;SDS011;41088;44.012;20.902;2022-10-16T11:09:00;6.25;;;3.80;;
55218;SDS011;41088;44.012;20.902;2022-10-16T11:11:33;6.07;;;3.60;;
55218;SDS011;41088;44.012;20.902;2022-10-16T11:14:19;12.65;;;4.30;;
55218;SDS011;41088;44.012;20.902;2022-10-16T11:16:57;10.77;;;4.50;;
55218;SDS011;41088;44.012;20.902;2022-10-16T11:24:44;8.93;;;4.40;;
55218;SDS011;41088;44.012;20.902;2022-10-16T11:27:15;8.77;;;4.05;;
55218;SDS011;41088;44.012;20.902;2022-10-16T11:29:58;11.15;;;4.20;;
55218;SDS011;41088;44.012;20.902;2022-10-16T11:32:34;7.80;;;4.18;;
55218;SDS011;41088;44.012;20.902;2022-10-16T11:35:11;7.57;;;4.22;;
55218;SDS011;41088;44.012;20.902;2022-10-16T11:37:42;9.13;;;4.10;;
55218;SDS011;41088;44.012;20.902;2022-10-16T11:40:22;9.65;;;4.68;;
55218;SDS011;41088;44.012;20.902;2022-10-16T11:43:04;10.30;;;4.30;;
55218;SDS011;41088;44.012;20.902;2022-10-16T11:45:39;9.35;;;4.90;;
55218;SDS011;41088;44.012;20.902;2022-10-16T11:56:32;32.72;;;16.27;;
55218;SDS011;41088;44.012;20.902;2022-10-16T11:59:14;11.30;;;5.05;;
55218;SDS011;41088;44.012;20.902;2022-10-16T12:01:52;10.15;;;4.70;;
55218;SDS011;41088;44.012;20.902;2022-10-16T12:06:59;8.05;;;4.13;;
55218;SDS011;41088;44.012;20.902;2022-10-16T12:09:27;10.45;;;4.30;;
55218;SDS011;41088;44.012;20.902;2022-10-16T12:11:53;7.80;;;4.00;;
55218;SDS011;41088;44.012;20.902;2022-10-16T12:16:58;6.43;;;4.25;;
55218;SDS011;41088;44.012;20.902;2022-10-16T12:19:26;7.40;;;4.50;;
55218;SDS011;41088;44.012;20.902;2022-10-16T12:21:54;12.63;;;4.43;;
55218;SDS011;41088;44.012;20.902;2022-10-16T12:24:41;9.38;;;4.57;;
55218;SDS011;41088;44.012;20.902;2022-10-16T12:30:02;10.63;;;4.53;;
55218;SDS011;41088;44.012;20.902;2022-10-16T12:32:37;11.80;;;4.30;;
55218;SDS011;41088;44.012;20.902;2022-10-16T12:35:17;9.18;;;4.03;;
55218;SDS011;41088;44.012;20.902;2022-10-16T12:37:43;6.80;;;4.35;;
55218;SDS011;41088;44.012;20.902;2022-10-16T12:40:14;8.43;;;4.40;;
55218;SDS011;41088;44.012;20.902;2022-10-16T12:42:41;8.02;;;3.92;;
55218;SDS011;41088;44.012;20.902;2022-10-16T12:45:23;14.15;;;4.53;;
55218;SDS011;41088;44.012;20.902;2022-10-16T12:47:51;9.75;;;4.32;;
55218;SDS011;41088;44.012;20.902;2022-10-16T12:50:37;7.10;;;4.70;;
55218;SDS011;41088;44.012;20.902;2022-10-16T12:53:17;7.85;;;4.10;;
55218;SDS011;41088;44.012;20.902;2022-10-16T12:55:47;14.55;;;4.60;;
55218;SDS011;41088;44.012;20.902;2022-10-16T12:58:21;18.67;;;4.70;;
55218;SDS011;41088;44.012;20.902;2022-10-16T13:00:51;42.35;;;6.00;;
55218;SDS011;41088;44.012;20.902;2022-10-16T13:05:58;10.88;;;4.50;;
55218;SDS011;41088;44.012;20.902;2022-10-16T13:16:49;17.75;;;4.15;;
55218;SDS011;41088;44.012;20.902;2022-10-16T13:29:32;22.38;;;4.60;;
55218;SDS011;41088;44.012;20.902;2022-10-16T13:31:59;11.57;;;4.07;;
55218;SDS011;41088;44.012;20.902;2022-10-16T13:34:26;6.57;;;3.72;;
55218;SDS011;41088;44.012;20.902;2022-10-16T13:36:53;19.08;;;3.88;;
55218;SDS011;41088;44.012;20.902;2022-10-16T13:39:29;11.43;;;4.20;;
55218;SDS011;41088;44.012;20.902;2022-10-16T13:42:03;9.05;;;4.72;;
55218;SDS011;41088;44.012;20.902;2022-10-16T13:44:31;7.55;;;4.47;;
55218;SDS011;41088;44.012;20.902;2022-10-16T13:47:02;9.75;;;4.18;;
55218;SDS011;41088;44.012;20.902;2022-10-16T13:49:29;10.70;;;4.35;;
55218;SDS011;41088;44.012;20.902;2022-10-16T13:51:58;18.73;;;4.32;;
55218;SDS011;41088;44.012;20.902;2022-10-16T13:56:51;11.00;;;4.22;;
55218;SDS011;41088;44.012;20.902;2022-10-16T13:59:32;13.05;;;5.07;;
55218;SDS011;41088;44.012;20.902;2022-10-16T14:01:58;9.60;;;4.30;;
55218;SDS011;41088;44.012;20.902;2022-10-16T14:04:31;6.80;;;3.88;;
55218;SDS011;41088;44.012;20.902;2022-10-16T14:06:57;8.60;;;4.00;;
55218;SDS011;41088;44.012;20.902;2022-10-16T14:09:30;10.43;;;4.22;;
55218;SDS011;41088;44.012;20.902;2022-10-16T14:11:58;6.88;;;4.22;;
55218;SDS011;41088;44.012;20.902;2022-10-16T14:14:24;6.78;;;4.25;;
55218;SDS011;41088;44.012;20.902;2022-10-16T14:16:52;8.60;;;4.28;;
55218;SDS011;41088;44.012;20.902;2022-10-16T14:19:20;7.03;;;4.13;;
55218;SDS011;41088;44.012;20.902;2022-10-16T14:21:47;7.05;;;4.05;;
55218;SDS011;41088;44.012;20.902;2022-10-16T14:24:22;8.13;;;3.95;;
55218;SDS011;41088;44.012;20.902;2022-10-16T14:26:52;6.32;;;3.75;;
55218;SDS011;41088;44.012;20.902;2022-10-16T14:29:21;6.97;;;3.90;;
55218;SDS011;41088;44.012;20.902;2022-10-16T14:31:55;8.30;;;3.90;;
55218;SDS011;41088;44.012;20.902;2022-10-16T14:34:26;10.23;;;4.10;;
55218;SDS011;41088;44.012;20.902;2022-10-16T14:36:53;8.63;;;3.95;;
55218;SDS011;41088;44.012;20.902;2022-10-16T14:39:20;5.82;;;3.70;;
55218;SDS011;41088;44.012;20.902;2022-10-16T14:41:48;7.70;;;4.15;;
55218;SDS011;41088;44.012;20.902;2022-10-16T14:44:14;8.38;;;4.30;;
55218;SDS011;41088;44.012;20.902;2022-10-16T14:46:43;7.72;;;3.95;;
55218;SDS011;41088;44.012;20.902;2022-10-16T14:51:35;6.40;;;3.42;;
55218;SDS011;41088;44.012;20.902;2022-10-16T14:54:02;6.93;;;3.92;;
55218;SDS011;41088;44.012;20.902;2022-10-16T14:56:29;7.95;;;3.70;;
55218;SDS011;41088;44.012;20.902;2022-10-16T14:58:55;8.07;;;3.95;;
55218;SDS011;41088;44.012;20.902;2022-10-16T15:01:22;13.52;;;4.72;;
55218;SDS011;41088;44.012;20.902;2022-10-16T15:03:48;10.48;;;4.72;;
55218;SDS011;41088;44.012;20.902;2022-10-16T15:06:15;11.93;;;4.78;;
55218;SDS011;41088;44.012;20.902;2022-10-16T15:08:43;8.30;;;4.40;;
55218;SDS011;41088;44.012;20.902;2022-10-16T15:11:11;11.23;;;4.57;;
55218;SDS011;41088;44.012;20.902;2022-10-16T15:13:38;9.98;;;4.72;;
55218;SDS011;41088;44.012;20.902;2022-10-16T15:16:07;9.38;;;4.90;;
55218;SDS011;41088;44.012;20.902;2022-10-16T15:18:33;7.75;;;4.57;;
55218;SDS011;41088;44.012;20.902;2022-10-16T15:20:59;10.43;;;4.78;;
55218;SDS011;41088;44.012;20.902;2022-10-16T15:23:26;9.30;;;4.65;;
55218;SDS011;41088;44.012;20.902;2022-10-16T15:25:54;10.48;;;5.22;;
55218;SDS011;41088;44.012;20.902;2022-10-16T15:28:21;8.70;;;4.60;;
55218;SDS011;41088;44.012;20.902;2022-10-16T15:30:49;12.45;;;4.80;;
55218;SDS011;41088;44.012;20.902;2022-10-16T15:33:17;10.75;;;5.03;;
55218;SDS011;41088;44.012;20.902;2022-10-16T15:35:47;9.07;;;5.30;;
55218;SDS011;41088;44.012;20.902;2022-10-16T15:38:14;9.27;;;5.32;;
55218;SDS011;41088;44.012;20.902;2022-10-16T15:40:42;10.68;;;5.57;;
55218;SDS011;41088;44.012;20.902;2022-10-16T15:43:08;18.08;;;6.38;;
55218;SDS011;41088;44.012;20.902;2022-10-16T15:45:34;13.25;;;6.40;;
55218;SDS011;41088;44.012;20.902;2022-10-16T15:48:00;14.90;;;7.05;;
55218;SDS011;41088;44.012;20.902;2022-10-16T15:50:26;17.02;;;7.63;;
55218;SDS011;41088;44.012;20.902;2022-10-16T15:52:52;27.25;;;9.15;;
55218;SDS011;41088;44.012;20.902;2022-10-16T15:55:19;27.38;;;11.90;;
55218;SDS011;41088;44.012;20.902;2022-10-16T15:57:45;22.92;;;11.30;;
55218;SDS011;41088;44.012;20.902;2022-10-16T16:00:13;35.33;;;12.35;;
55218;SDS011;41088;44.012;20.902;2022-10-16T16:02:41;26.60;;;11.90;;
55218;SDS011;41088;44.012;20.902;2022-10-16T16:05:09;29.73;;;14.13;;
55218;SDS011;41088;44.012;20.902;2022-10-16T16:07:36;28.38;;;15.25;;
55218;SDS011;41088;44.012;20.902;2022-10-16T16:10:04;28.60;;;14.77;;
55218;SDS011;41088;44.012;20.902;2022-10-16T16:12:32;31.83;;;15.57;;
55218;SDS011;41088;44.012;20.902;2022-10-16T16:14:58;34.90;;;15.82;;
55218;SDS011;41088;44.012;20.902;2022-10-16T16:17:24;29.25;;;14.98;;
55218;SDS011;41088;44.012;20.902;2022-10-16T16:19:51;30.88;;;15.88;;
55218;SDS011;41088;44.012;20.902;2022-10-16T16:22:17;28.88;;;16.25;;
55218;SDS011;41088;44.012;20.902;2022-10-16T16:24:43;32.55;;;17.10;;
55218;SDS011;41088;44.012;20.902;2022-10-16T16:27:09;31.23;;;16.98;;
55218;SDS011;41088;44.012;20.902;2022-10-16T16:29:35;66.03;;;34.80;;
55218;SDS011;41088;44.012;20.902;2022-10-16T16:32:01;67.65;;;33.58;;
55218;SDS011;41088;44.012;20.902;2022-10-16T16:34:27;51.28;;;25.63;;
55218;SDS011;41088;44.012;20.902;2022-10-16T16:36:54;39.72;;;22.65;;
55218;SDS011;41088;44.012;20.902;2022-10-16T16:39:20;43.72;;;23.33;;
55218;SDS011;41088;44.012;20.902;2022-10-16T16:41:47;39.33;;;20.83;;
55218;SDS011;41088;44.012;20.902;2022-10-16T16:44:13;36.45;;;20.27;;
55218;SDS011;41088;44.012;20.902;2022-10-16T16:46:40;40.30;;;21.15;;
55218;SDS011;41088;44.012;20.902;2022-10-16T16:49:08;35.22;;;19.88;;
55218;SDS011;41088;44.012;20.902;2022-10-16T16:51:37;40.40;;;20.92;;
55218;SDS011;41088;44.012;20.902;2022-10-16T16:54:04;41.88;;;23.67;;
55218;SDS011;41088;44.012;20.902;2022-10-16T16:56:32;55.45;;;34.15;;
55218;SDS011;41088;44.012;20.902;2022-10-16T16:58:58;51.00;;;29.42;;
55218;SDS011;41088;44.012;20.902;2022-10-16T17:01:25;55.10;;;30.08;;
55218;SDS011;41088;44.012;20.902;2022-10-16T17:03:52;55.70;;;32.20;;
55218;SDS011;41088;44.012;20.902;2022-10-16T17:06:20;53.35;;;28.40;;
55218;SDS011;41088;44.012;20.902;2022-10-16T17:08:48;39.05;;;21.23;;
55218;SDS011;41088;44.012;20.902;2022-10-16T17:11:15;51.33;;;29.15;;
55218;SDS011;41088;44.012;20.902;2022-10-16T17:13:46;44.20;;;25.27;;
55218;SDS011;41088;44.012;20.902;2022-10-16T17:16:12;51.38;;;27.85;;
55218;SDS011;41088;44.012;20.902;2022-10-16T17:18:39;55.30;;;30.15;;
55218;SDS011;41088;44.012;20.902;2022-10-16T17:21:06;44.72;;;25.38;;
55218;SDS011;41088;44.012;20.902;2022-10-16T17:23:34;48.25;;;24.25;;
55218;SDS011;41088;44.012;20.902;2022-10-16T17:26:04;43.65;;;21.52;;
55218;SDS011;41088;44.012;20.902;2022-10-16T17:28:36;47.35;;;24.77;;
55218;SDS011;41088;44.012;20.902;2022-10-16T17:31:12;40.78;;;23.33;;
55218;SDS011;41088;44.012;20.902;2022-10-16T17:33:40;49.63;;;27.42;;
55218;SDS011;41088;44.012;20.902;2022-10-16T17:36:06;41.85;;;23.15;;
55218;SDS011;41088;44.012;20.902;2022-10-16T17:38:33;31.10;;;17.73;;
55218;SDS011;41088;44.012;20.902;2022-10-16T17:41:08;27.83;;;14.43;;
55218;SDS011;41088;44.012;20.902;2022-10-16T17:43:48;30.42;;;15.30;;
55218;SDS011;41088;44.012;20.902;2022-10-16T17:46:17;28.00;;;13.95;;
55218;SDS011;41088;44.012;20.902;2022-10-16T17:48:45;34.47;;;18.10;;
55218;SDS011;41088;44.012;20.902;2022-10-16T17:51:13;22.92;;;12.00;;
55218;SDS011;41088;44.012;20.902;2022-10-16T17:53:40;26.25;;;13.75;;
55218;SDS011;41088;44.012;20.902;2022-10-16T17:56:11;29.00;;;16.63;;
55218;SDS011;41088;44.012;20.902;2022-10-16T17:58:38;25.35;;;12.38;;
55218;SDS011;41088;44.012;20.902;2022-10-16T18:01:15;21.85;;;10.85;;
55218;SDS011;41088;44.012;20.902;2022-10-16T18:03:57;23.20;;;12.40;;
55218;SDS011;41088;44.012;20.902;2022-10-16T18:06:25;26.30;;;11.25;;
55218;SDS011;41088;44.012;20.902;2022-10-16T18:08:52;24.95;;;11.07;;
55218;SDS011;41088;44.012;20.902;2022-10-16T18:11:18;23.55;;;11.55;;
55218;SDS011;41088;44.012;20.902;2022-10-16T18:13:46;21.38;;;11.15;;
55218;SDS011;41088;44.012;20.902;2022-10-16T18:16:12;25.63;;;11.80;;
55218;SDS011;41088;44.012;20.902;2022-10-16T18:18:39;21.27;;;11.55;;
55218;SDS011;41088;44.012;20.902;2022-10-16T18:21:08;25.63;;;12.18;;
55218;SDS011;41088;44.012;20.902;2022-10-16T18:23:35;23.15;;;12.77;;
55218;SDS011;41088;44.012;20.902;2022-10-16T18:26:03;21.92;;;13.45;;
55218;SDS011;41088;44.012;20.902;2022-10-16T18:28:29;28.40;;;13.80;;
55218;SDS011;41088;44.012;20.902;2022-10-16T18:30:56;27.55;;;14.20;;
55218;SDS011;41088;44.012;20.902;2022-10-16T18:33:24;26.95;;;14.05;;
55218;SDS011;41088;44.012;20.902;2022-10-16T18:35:51;34.28;;;15.27;;
55218;SDS011;41088;44.012;20.902;2022-10-16T18:38:17;33.45;;;15.52;;
55218;SDS011;41088;44.012;20.902;2022-10-16T18:40:44;31.45;;;14.48;;
55218;SDS011;41088;44.012;20.902;2022-10-16T18:43:10;32.17;;;15.07;;
55218;SDS011;41088;44.012;20.902;2022-10-16T18:45:35;28.23;;;14.52;;
55218;SDS011;41088;44.012;20.902;2022-10-16T18:48:01;29.05;;;14.73;;
55218;SDS011;41088;44.012;20.902;2022-10-16T18:50:27;32.88;;;19.15;;
55218;SDS011;41088;44.012;20.902;2022-10-16T18:52:53;33.03;;;17.20;;
55218;SDS011;41088;44.012;20.902;2022-10-16T18:55:19;34.13;;;18.02;;
55218;SDS011;41088;44.012;20.902;2022-10-16T18:57:45;38.75;;;19.25;;
55218;SDS011;41088;44.012;20.902;2022-10-16T19:00:11;36.92;;;19.90;;
55218;SDS011;41088;44.012;20.902;2022-10-16T19:02:37;40.65;;;20.92;;
55218;SDS011;41088;44.012;20.902;2022-10-16T19:05:03;44.30;;;24.30;;
55218;SDS011;41088;44.012;20.902;2022-10-16T19:07:29;50.33;;;25.98;;
55218;SDS011;41088;44.012;20.902;2022-10-16T19:09:56;56.35;;;30.27;;
55218;SDS011;41088;44.012;20.902;2022-10-16T19:12:21;61.50;;;32.50;;
55218;SDS011;41088;44.012;20.902;2022-10-16T19:14:47;54.58;;;32.92;;
55218;SDS011;41088;44.012;20.902;2022-10-16T19:17:13;66.07;;;34.40;;
55218;SDS011;41088;44.012;20.902;2022-10-16T19:19:39;62.47;;;34.50;;
55218;SDS011;41088;44.012;20.902;2022-10-16T19:22:05;62.80;;;33.53;;
55218;SDS011;41088;44.012;20.902;2022-10-16T19:24:54;59.80;;;33.03;;
55218;SDS011;41088;44.012;20.902;2022-10-16T19:27:20;70.57;;;38.70;;
55218;SDS011;41088;44.012;20.902;2022-10-16T19:29:47;104.30;;;37.95;;
55218;SDS011;41088;44.012;20.902;2022-10-16T19:32:14;65.93;;;35.25;;
55218;SDS011;41088;44.012;20.902;2022-10-16T19:34:40;62.83;;;34.88;;
55218;SDS011;41088;44.012;20.902;2022-10-16T19:37:06;67.47;;;35.60;;
55218;SDS011;41088;44.012;20.902;2022-10-16T19:39:34;64.97;;;34.95;;
55218;SDS011;41088;44.012;20.902;2022-10-16T19:42:00;68.32;;;39.25;;
55218;SDS011;41088;44.012;20.902;2022-10-16T19:44:26;64.47;;;36.30;;
55218;SDS011;41088;44.012;20.902;2022-10-16T19:46:51;62.88;;;35.42;;
55218;SDS011;41088;44.012;20.902;2022-10-16T19:49:17;64.90;;;34.90;;
55218;SDS011;41088;44.012;20.902;2022-10-16T19:51:46;70.57;;;37.10;;
55218;SDS011;41088;44.012;20.902;2022-10-16T19:54:13;71.22;;;38.25;;
55218;SDS011;41088;44.012;20.902;2022-10-16T19:56:40;65.75;;;39.00;;
55218;SDS011;41088;44.012;20.902;2022-10-16T19:59:07;75.72;;;43.42;;
55218;SDS011;41088;44.012;20.902;2022-10-16T20:01:35;67.95;;;36.65;;
55218;SDS011;41088;44.012;20.902;2022-10-16T20:04:01;64.38;;;31.55;;
55218;SDS011;41088;44.012;20.902;2022-10-16T20:06:27;55.80;;;30.17;;
55218;SDS011;41088;44.012;20.902;2022-10-16T20:08:53;63.70;;;34.30;;
55218;SDS011;41088;44.012;20.902;2022-10-16T20:11:26;64.35;;;37.38;;
55218;SDS011;41088;44.012;20.902;2022-10-16T20:13:54;70.68;;;38.80;;
55218;SDS011;41088;44.012;20.902;2022-10-16T20:16:20;59.75;;;32.05;;
55218;SDS011;41088;44.012;20.902;2022-10-16T20:18:47;58.08;;;31.23;;
55218;SDS011;41088;44.012;20.902;2022-10-16T20:21:15;52.85;;;30.15;;
55218;SDS011;41088;44.012;20.902;2022-10-16T20:23:43;52.67;;;31.80;;
55218;SDS011;41088;44.012;20.902;2022-10-16T20:26:09;58.60;;;31.98;;
55218;SDS011;41088;44.012;20.902;2022-10-16T20:28:36;59.60;;;32.10;;
55218;SDS011;41088;44.012;20.902;2022-10-16T20:31:07;77.70;;;40.67;;
55218;SDS011;41088;44.012;20.902;2022-10-16T20:33:36;74.72;;;40.28;;
55218;SDS011;41088;44.012;20.902;2022-10-16T20:36:02;62.50;;;35.53;;
55218;SDS011;41088;44.012;20.902;2022-10-16T20:38:28;61.92;;;32.80;;
55218;SDS011;41088;44.012;20.902;2022-10-16T20:40:54;67.10;;;35.00;;
55218;SDS011;41088;44.012;20.902;2022-10-16T20:43:20;74.32;;;41.17;;
55218;SDS011;41088;44.012;20.902;2022-10-16T20:45:45;67.60;;;37.97;;
55218;SDS011;41088;44.012;20.902;2022-10-16T20:48:12;59.80;;;34.85;;
55218;SDS011;41088;44.012;20.902;2022-10-16T20:50:38;80.47;;;42.80;;
55218;SDS011;41088;44.012;20.902;2022-10-16T20:53:05;64.70;;;31.95;;
55218;SDS011;41088;44.012;20.902;2022-10-16T20:55:34;74.35;;;39.80;;
55218;SDS011;41088;44.012;20.902;2022-10-16T20:58:00;65.25;;;34.15;;
55218;SDS011;41088;44.012;20.902;2022-10-16T21:00:26;80.45;;;42.75;;
55218;SDS011;41088;44.012;20.902;2022-10-16T21:02:52;91.25;;;46.42;;
55218;SDS011;41088;44.012;20.902;2022-10-16T21:05:18;119.85;;;61.95;;
55218;SDS011;41088;44.012;20.902;2022-10-16T21:07:45;86.05;;;44.72;;
55218;SDS011;41088;44.012;20.902;2022-10-16T21:10:11;74.50;;;39.55;;
55218;SDS011;41088;44.012;20.902;2022-10-16T21:12:37;71.32;;;39.70;;
55218;SDS011;41088;44.012;20.902;2022-10-16T21:15:03;74.03;;;38.80;;
55218;SDS011;41088;44.012;20.902;2022-10-16T21:17:30;74.82;;;38.88;;
55218;SDS011;41088;44.012;20.902;2022-10-16T21:19:56;73.40;;;37.53;;
55218;SDS011;41088;44.012;20.902;2022-10-16T21:22:22;62.15;;;35.58;;
55218;SDS011;41088;44.012;20.902;2022-10-16T21:24:52;65.93;;;35.85;;
55218;SDS011;41088;44.012;20.902;2022-10-16T21:27:18;61.67;;;34.15;;
55218;SDS011;41088;44.012;20.902;2022-10-16T21:29:44;57.50;;;33.45;;
55218;SDS011;41088;44.012;20.902;2022-10-16T21:32:10;64.25;;;34.00;;
55218;SDS011;41088;44.012;20.902;2022-10-16T21:34:36;56.92;;;31.20;;
55218;SDS011;41088;44.012;20.902;2022-10-16T21:37:02;52.45;;;30.75;;
55218;SDS011;41088;44.012;20.902;2022-10-16T21:39:28;51.97;;;28.92;;
55218;SDS011;41088;44.012;20.902;2022-10-16T21:41:54;54.47;;;29.80;;
55218;SDS011;41088;44.012;20.902;2022-10-16T21:44:21;47.47;;;27.27;;
55218;SDS011;41088;44.012;20.902;2022-10-16T21:46:47;52.00;;;27.98;;
55218;SDS011;41088;44.012;20.902;2022-10-16T21:49:16;59.63;;;29.90;;
55218;SDS011;41088;44.012;20.902;2022-10-16T21:51:44;69.82;;;35.15;;
55218;SDS011;41088;44.012;20.902;2022-10-16T21:54:13;62.67;;;31.38;;
55218;SDS011;41088;44.012;20.902;2022-10-16T21:56:45;70.07;;;38.60;;
55218;SDS011;41088;44.012;20.902;2022-10-16T21:59:12;61.15;;;31.02;;
55218;SDS011;41088;44.012;20.902;2022-10-16T22:01:38;65.85;;;37.97;;
55218;SDS011;41088;44.012;20.902;2022-10-16T22:04:04;70.20;;;40.58;;
55218;SDS011;41088;44.012;20.902;2022-10-16T22:06:30;77.70;;;45.50;;
55218;SDS011;41088;44.012;20.902;2022-10-16T22:08:57;73.50;;;44.25;;
55218;SDS011;41088;44.012;20.902;2022-10-16T22:11:32;49.03;;;27.00;;
55218;SDS011;41088;44.012;20.902;2022-10-16T22:14:04;38.50;;;20.73;;
55218;SDS011;41088;44.012;20.902;2022-10-16T22:16:32;42.85;;;22.50;;
55218;SDS011;41088;44.012;20.902;2022-10-16T22:18:59;38.38;;;20.95;;
55218;SDS011;41088;44.012;20.902;2022-10-16T22:21:27;41.58;;;23.45;;
55218;SDS011;41088;44.012;20.902;2022-10-16T22:23:54;44.95;;;25.80;;
55218;SDS011;41088;44.012;20.902;2022-10-16T22:26:20;48.00;;;25.67;;
55218;SDS011;41088;44.012;20.902;2022-10-16T22:28:48;54.45;;;26.50;;
55218;SDS011;41088;44.012;20.902;2022-10-16T22:31:14;41.90;;;22.20;;
55218;SDS011;41088;44.012;20.902;2022-10-16T22:33:40;32.70;;;19.17;;
55218;SDS011;41088;44.012;20.902;2022-10-16T22:36:09;36.22;;;19.75;;
55218;SDS011;41088;44.012;20.902;2022-10-16T22:38:36;43.70;;;24.05;;
55218;SDS011;41088;44.012;20.902;2022-10-16T22:41:07;43.22;;;22.02;;
55218;SDS011;41088;44.012;20.902;2022-10-16T22:43:35;36.83;;;20.05;;
55218;SDS011;41088;44.012;20.902;2022-10-16T22:48:32;39.67;;;20.13;;
55218;SDS011;41088;44.012;20.902;2022-10-16T22:50:59;35.67;;;19.42;;
55218;SDS011;41088;44.012;20.902;2022-10-16T22:53:26;37.88;;;20.85;;
55218;SDS011;41088;44.012;20.902;2022-10-16T22:55:53;39.60;;;20.08;;
55218;SDS011;41088;44.012;20.902;2022-10-16T22:58:18;36.38;;;19.10;;
55218;SDS011;41088;44.012;20.902;2022-10-16T23:00:45;32.75;;;18.02;;
55218;SDS011;41088;44.012;20.902;2022-10-16T23:03:11;29.23;;;16.88;;
55218;SDS011;41088;44.012;20.902;2022-10-16T23:05:37;27.80;;;16.83;;
55218;SDS011;41088;44.012;20.902;2022-10-16T23:08:04;32.05;;;18.08;;
55218;SDS011;41088;44.012;20.902;2022-10-16T23:10:31;36.22;;;18.77;;
55218;SDS011;41088;44.012;20.902;2022-10-16T23:13:06;32.67;;;17.13;;
55218;SDS011;41088;44.012;20.902;2022-10-16T23:15:33;32.95;;;17.92;;
55218;SDS011;41088;44.012;20.902;2022-10-16T23:17:59;30.98;;;16.00;;
55218;SDS011;41088;44.012;20.902;2022-10-16T23:20:25;26.67;;;16.35;;
55218;SDS011;41088;44.012;20.902;2022-10-16T23:22:51;28.02;;;17.20;;
55218;SDS011;41088;44.012;20.902;2022-10-16T23:25:18;32.20;;;18.48;;
55218;SDS011;41088;44.012;20.902;2022-10-16T23:27:44;30.75;;;17.52;;
55218;SDS011;41088;44.012;20.902;2022-10-16T23:30:10;34.22;;;19.17;;
55218;SDS011;41088;44.012;20.902;2022-10-16T23:32:36;36.28;;;18.60;;
55218;SDS011;41088;44.012;20.902;2022-10-16T23:35:03;33.45;;;19.55;;
55218;SDS011;41088;44.012;20.902;2022-10-16T23:37:30;33.60;;;18.50;;
55218;SDS011;41088;44.012;20.902;2022-10-16T23:39:57;35.30;;;19.42;;
55218;SDS011;41088;44.012;20.902;2022-10-16T23:42:24;32.60;;;18.63;;
55218;SDS011;41088;44.012;20.902;2022-10-16T23:44:50;34.55;;;19.52;;
55218;SDS011;41088;44.012;20.902;2022-10-16T23:47:16;39.35;;;19.80;;
55218;SDS011;41088;44.012;20.902;2022-10-16T23:49:41;34.80;;;19.67;;
55218;SDS011;41088;44.012;20.902;2022-10-16T23:52:07;33.70;;;19.35;;
55218;SDS011;41088;44.012;20.902;2022-10-16T23:54:33;35.40;;;18.40;;
55218;SDS011;41088;44.012;20.902;2022-10-16T23:57:00;29.92;;;17.67;;
55218;SDS011;41088;44.012;20.902;2022-10-16T23:59:26;33.30;;;17.92;;
